Thursday, April 17, 2014, 2:42 AM EDT

KIPT, Williamsport-lycoming County

Location: Montoursville, PA, United States Lat: 41.25
Local Time: 2:42 AM EDT ( 6:42 GMT) Lon: -76.917
Time Zone: US/Eastern Elev: 528 ft

Show me the last for .
Show Decoded

2014-04-17 01:54 METAR KIPT 170554Z 00000KT 10SM CLR M01/M07 A3057 RMK AO2 SLP358 T10111072 10050
                 21017 51014 =
2014-04-17 00:54 METAR KIPT 170454Z 00000KT 10SM CLR M01/M07 A3057 RMK AO2 SLP357 T10061072
                 400781044 =
2014-04-16 23:54 METAR KIPT 170354Z 00000KT 10SM CLR 01/M09 A3055 RMK AO2 SLP351 T00111094 =
2014-04-16 22:54 METAR KIPT 170254Z 09005KT 10SM CLR 01/M09 A3053 RMK AO2 SLP344 T00111089 51022
                 =
2014-04-16 21:54 METAR KIPT 170154Z 10006KT 10SM CLR 02/M09 A3052 RMK AO2 SLP342 T00221094 =
2014-04-16 20:54 METAR KIPT 170054Z 12005KT 10SM CLR 03/M08 A3050 RMK AO2 SLP334 T00331083 =
2014-04-16 19:54 METAR KIPT 162354Z 03004KT 10SM CLR 05/M11 A3046 RMK AO2 SLP321 T00501106 10078
                 20044 53007 =
2014-04-16 18:54 METAR KIPT 162254Z 00000KT 10SM CLR 07/M11 A3046 RMK AO2 SLP318 T00671111 =
2014-04-16 17:54 METAR KIPT 162154Z 35005KT 10SM CLR 07/M12 A3045 RMK AO2 SLP317 T00721117 =
2014-04-16 16:54 METAR KIPT 162054Z 04004KT 10SM CLR 07/M11 A3044 RMK AO2 SLP314 T00721111 56003
                 =
2014-04-16 15:54 METAR KIPT 161954Z 04008KT 360V060 10SM CLR 07/M11 A3045 RMK AO2 SLP315
                 T00671106 =
2014-04-16 14:54 METAR KIPT 161854Z VRB05KT 10SM CLR 06/M12 A3045 RMK AO2 SLP316 T00611117 =
2014-04-16 13:54 METAR KIPT 161754Z 36007KT 320V040 10SM SCT250 05/M11 A3045 RMK AO2 SLP318 60000
                 T00501111 10050 21033 50000 =
2014-04-16 12:54 METAR KIPT 161654Z 34011G17KT 10SM CLR 04/M11 A3046 RMK AO2 SLP319 T00441111 =
2014-04-16 11:54 METAR KIPT 161554Z 30009G17KT 10SM CLR 03/M11 A3045 RMK AO2 RAEMM SLP317 P0000
                 T00281111 =
2014-04-16 10:54 METAR KIPT 161454Z COR 32010KT 10SM FEW047 02/M11 A3045 =
2014-04-16 09:54 METAR KIPT 161354Z 31009KT 10SM BKN045 00/M11 A3043 RMK AO2 SLP308 T00001106 $ =
2014-04-16 08:54 METAR KIPT 161254Z 36009KT 10SM FEW039 M02/M12 A3039 RMK AO2 SLP298 T10221117 $
                 =
2014-04-16 07:54 METAR KIPT 161154Z 32012KT 10SM CLR M03/M12 A3036 RMK AO2 SLP286 70040 T10331117
                 11022 21044 51041 $ =
2014-04-16 06:54 METAR KIPT 161054Z 31009KT 10SM CLR M04/M13 A3033 =
2014-04-16 05:54 METAR KIPT 160954Z AUTO 31010KT CLR M04/M13 A3028 RMK AO2 PRESRR SLP261
                 T10391133 $ =
2014-04-16 04:54 METAR KIPT 160854Z AUTO 32011KT CLR M04/M13 A3023 RMK AO2 SLP244 T10391133 53034
                 $ =
2014-04-16 03:54 METAR KIPT 160754Z AUTO 33013KT CLR M03/M13 A3019 RMK AO2 SLP228 T10331128 $ =
2014-04-16 02:54 METAR KIPT 160654Z AUTO 31013G19KT CLR M03/M12 A3016 RMK AO2 SLP216 T10281122 $
                 =

Support USWX by starting your Amazon purchase here.